sensor_id;sensor_type;location;lat;lon;timestamp;temperature;humidity
21149;DHT22;10732;51.472;6.466;2023-08-21T00:00:43;19.50;99.90
21149;DHT22;10732;51.472;6.466;2023-08-21T00:03:09;19.40;99.90
21149;DHT22;10732;51.472;6.466;2023-08-21T00:05:35;19.40;99.90
21149;DHT22;10732;51.472;6.466;2023-08-21T00:08:00;19.30;99.90
21149;DHT22;10732;51.472;6.466;2023-08-21T00:10:26;19.30;99.90
21149;DHT22;10732;51.472;6.466;2023-08-21T00:12:51;19.20;99.90
21149;DHT22;10732;51.472;6.466;2023-08-21T00:15:17;19.30;99.90
21149;DHT22;10732;51.472;6.466;2023-08-21T00:17:42;19.30;99.90
21149;DHT22;10732;51.472;6.466;2023-08-21T00:20:08;19.20;99.90
21149;DHT22;10732;51.472;6.466;2023-08-21T00:22:35;19.20;99.90
21149;DHT22;10732;51.472;6.466;2023-08-21T00:25:01;19.10;99.90
21149;DHT22;10732;51.472;6.466;2023-08-21T00:27:26;19.10;99.90
21149;DHT22;10732;51.472;6.466;2023-08-21T00:29:52;19.10;99.90
21149;DHT22;10732;51.472;6.466;2023-08-21T00:32:18;19.10;99.90
21149;DHT22;10732;51.472;6.466;2023-08-21T00:34:43;19.10;99.90
21149;DHT22;10732;51.472;6.466;2023-08-21T00:37:09;19.10;99.90
21149;DHT22;10732;51.472;6.466;2023-08-21T00:39:35;19.20;99.90
21149;DHT22;10732;51.472;6.466;2023-08-21T00:42:00;19.20;99.90
21149;DHT22;10732;51.472;6.466;2023-08-21T00:44:26;19.30;99.90
21149;DHT22;10732;51.472;6.466;2023-08-21T00:46:51;19.30;99.90
21149;DHT22;10732;51.472;6.466;2023-08-21T00:49:17;19.30;99.90
21149;DHT22;10732;51.472;6.466;2023-08-21T00:51:44;19.30;99.90
21149;DHT22;10732;51.472;6.466;2023-08-21T00:54:09;19.30;99.90
21149;DHT22;10732;51.472;6.466;2023-08-21T00:56:35;19.30;99.90
21149;DHT22;10732;51.472;6.466;2023-08-21T00:59:01;19.30;99.90
21149;DHT22;10732;51.472;6.466;2023-08-21T01:01:28;19.30;99.90
21149;DHT22;10732;51.472;6.466;2023-08-21T01:03:54;19.30;99.90
21149;DHT22;10732;51.472;6.466;2023-08-21T01:06:20;19.30;99.90
21149;DHT22;10732;51.472;6.466;2023-08-21T01:09:07;19.20;99.90
21149;DHT22;10732;51.472;6.466;2023-08-21T01:11:48;19.10;99.90
21149;DHT22;10732;51.472;6.466;2023-08-21T01:17:04;19.10;99.90
21149;DHT22;10732;51.472;6.466;2023-08-21T01:19:36;19.00;99.90
21149;DHT22;10732;51.472;6.466;2023-08-21T01:22:03;18.90;99.90
21149;DHT22;10732;51.472;6.466;2023-08-21T01:24:29;19.00;99.90
21149;DHT22;10732;51.472;6.466;2023-08-21T01:26:54;19.00;99.90
21149;DHT22;10732;51.472;6.466;2023-08-21T01:29:20;19.10;99.90
21149;DHT22;10732;51.472;6.466;2023-08-21T01:34:33;19.00;99.90
21149;DHT22;10732;51.472;6.466;2023-08-21T01:37:00;18.90;99.90
21149;DHT22;10732;51.472;6.466;2023-08-21T01:39:27;18.90;99.90
21149;DHT22;10732;51.472;6.466;2023-08-21T01:41:52;18.90;99.90
21149;DHT22;10732;51.472;6.466;2023-08-21T01:44:18;18.90;99.90
21149;DHT22;10732;51.472;6.466;2023-08-21T01:46:43;18.90;99.90
21149;DHT22;10732;51.472;6.466;2023-08-21T01:49:09;18.80;99.90
21149;DHT22;10732;51.472;6.466;2023-08-21T01:51:34;18.80;99.90
21149;DHT22;10732;51.472;6.466;2023-08-21T01:54:00;18.70;99.90
21149;DHT22;10732;51.472;6.466;2023-08-21T01:56:26;18.70;99.90
21149;DHT22;10732;51.472;6.466;2023-08-21T01:58:51;18.80;99.90
21149;DHT22;10732;51.472;6.466;2023-08-21T02:01:17;18.90;99.90
21149;DHT22;10732;51.472;6.466;2023-08-21T02:03:44;18.90;99.90
21149;DHT22;10732;51.472;6.466;2023-08-21T02:06:10;18.90;99.90
21149;DHT22;10732;51.472;6.466;2023-08-21T02:08:36;18.90;99.90
21149;DHT22;10732;51.472;6.466;2023-08-21T02:11:01;18.90;99.90
21149;DHT22;10732;51.472;6.466;2023-08-21T02:13:27;18.90;99.90
21149;DHT22;10732;51.472;6.466;2023-08-21T02:15:52;18.80;99.90
21149;DHT22;10732;51.472;6.466;2023-08-21T02:18:18;18.70;99.90
21149;DHT22;10732;51.472;6.466;2023-08-21T02:20:44;18.70;99.90
21149;DHT22;10732;51.472;6.466;2023-08-21T02:23:09;18.70;99.90
21149;DHT22;10732;51.472;6.466;2023-08-21T02:25:35;18.70;99.90
21149;DHT22;10732;51.472;6.466;2023-08-21T02:28:01;18.60;99.90
21149;DHT22;10732;51.472;6.466;2023-08-21T02:30:28;18.60;99.90
21149;DHT22;10732;51.472;6.466;2023-08-21T02:32:54;18.50;99.90
21149;DHT22;10732;51.472;6.466;2023-08-21T02:35:23;18.50;99.90
21149;DHT22;10732;51.472;6.466;2023-08-21T02:37:48;18.50;99.90
21149;DHT22;10732;51.472;6.466;2023-08-21T02:40:14;18.50;99.90
21149;DHT22;10732;51.472;6.466;2023-08-21T02:42:39;18.50;99.90
21149;DHT22;10732;51.472;6.466;2023-08-21T02:45:05;18.50;99.90
21149;DHT22;10732;51.472;6.466;2023-08-21T02:47:37;18.60;99.90
21149;DHT22;10732;51.472;6.466;2023-08-21T02:50:05;18.70;99.90
21149;DHT22;10732;51.472;6.466;2023-08-21T02:52:31;18.70;99.90
21149;DHT22;10732;51.472;6.466;2023-08-21T02:54:57;18.70;99.90
21149;DHT22;10732;51.472;6.466;2023-08-21T02:57:26;18.70;99.90
21149;DHT22;10732;51.472;6.466;2023-08-21T02:59:52;18.70;99.90
21149;DHT22;10732;51.472;6.466;2023-08-21T03:02:18;18.70;99.90
21149;DHT22;10732;51.472;6.466;2023-08-21T03:04:44;18.70;99.90
21149;DHT22;10732;51.472;6.466;2023-08-21T03:07:10;18.60;99.90
21149;DHT22;10732;51.472;6.466;2023-08-21T03:09:36;18.60;99.90
21149;DHT22;10732;51.472;6.466;2023-08-21T03:12:03;18.60;99.90
21149;DHT22;10732;51.472;6.466;2023-08-21T03:14:28;18.50;99.90
21149;DHT22;10732;51.472;6.466;2023-08-21T03:16:54;18.50;99.90
21149;DHT22;10732;51.472;6.466;2023-08-21T03:19:20;18.40;99.90
21149;DHT22;10732;51.472;6.466;2023-08-21T03:21:46;18.30;99.90
21149;DHT22;10732;51.472;6.466;2023-08-21T03:24:11;18.30;99.90
21149;DHT22;10732;51.472;6.466;2023-08-21T03:26:37;18.20;99.90
21149;DHT22;10732;51.472;6.466;2023-08-21T03:29:02;18.20;99.90
21149;DHT22;10732;51.472;6.466;2023-08-21T03:31:29;18.00;99.90
21149;DHT22;10732;51.472;6.466;2023-08-21T03:33:54;17.90;99.90
21149;DHT22;10732;51.472;6.466;2023-08-21T03:36:20;17.80;99.90
21149;DHT22;10732;51.472;6.466;2023-08-21T03:38:45;17.80;99.90
21149;DHT22;10732;51.472;6.466;2023-08-21T03:41:11;17.70;99.90
21149;DHT22;10732;51.472;6.466;2023-08-21T03:43:37;17.70;99.90
21149;DHT22;10732;51.472;6.466;2023-08-21T03:46:03;17.70;99.90
21149;DHT22;10732;51.472;6.466;2023-08-21T03:48:28;17.70;99.90
21149;DHT22;10732;51.472;6.466;2023-08-21T03:50:54;17.70;99.90
21149;DHT22;10732;51.472;6.466;2023-08-21T03:53:19;17.70;99.90
21149;DHT22;10732;51.472;6.466;2023-08-21T03:55:45;17.70;99.90
21149;DHT22;10732;51.472;6.466;2023-08-21T03:58:11;17.70;99.90
21149;DHT22;10732;51.472;6.466;2023-08-21T04:00:36;17.70;99.90
21149;DHT22;10732;51.472;6.466;2023-08-21T04:03:02;17.70;99.90
21149;DHT22;10732;51.472;6.466;2023-08-21T04:05:28;17.60;99.90
21149;DHT22;10732;51.472;6.466;2023-08-21T04:07:53;17.60;99.90
21149;DHT22;10732;51.472;6.466;2023-08-21T04:10:19;17.70;99.90
21149;DHT22;10732;51.472;6.466;2023-08-21T04:12:44;17.70;99.90
21149;DHT22;10732;51.472;6.466;2023-08-21T04:15:10;17.80;99.90
21149;DHT22;10732;51.472;6.466;2023-08-21T04:17:35;17.90;99.90
21149;DHT22;10732;51.472;6.466;2023-08-21T04:20:01;17.80;99.90
21149;DHT22;10732;51.472;6.466;2023-08-21T04:22:27;17.80;99.90
21149;DHT22;10732;51.472;6.466;2023-08-21T04:24:53;17.80;99.90
21149;DHT22;10732;51.472;6.466;2023-08-21T04:27:18;17.70;99.90
21149;DHT22;10732;51.472;6.466;2023-08-21T04:29:44;17.60;99.90
21149;DHT22;10732;51.472;6.466;2023-08-21T04:32:09;17.60;99.90
21149;DHT22;10732;51.472;6.466;2023-08-21T04:34:35;17.60;99.90
21149;DHT22;10732;51.472;6.466;2023-08-21T04:37:00;17.60;99.90
21149;DHT22;10732;51.472;6.466;2023-08-21T04:39:26;17.70;99.90
21149;DHT22;10732;51.472;6.466;2023-08-21T04:41:52;17.70;99.90
21149;DHT22;10732;51.472;6.466;2023-08-21T04:44:17;17.80;99.90
21149;DHT22;10732;51.472;6.466;2023-08-21T04:46:43;17.90;99.90
21149;DHT22;10732;51.472;6.466;2023-08-21T04:49:09;18.00;99.90
21149;DHT22;10732;51.472;6.466;2023-08-21T04:51:34;17.90;99.90
21149;DHT22;10732;51.472;6.466;2023-08-21T04:54:00;18.00;99.90
21149;DHT22;10732;51.472;6.466;2023-08-21T04:56:26;18.00;99.90
21149;DHT22;10732;51.472;6.466;2023-08-21T04:58:52;18.10;99.90
21149;DHT22;10732;51.472;6.466;2023-08-21T05:01:18;18.10;99.90
21149;DHT22;10732;51.472;6.466;2023-08-21T05:03:43;18.30;99.90
21149;DHT22;10732;51.472;6.466;2023-08-21T05:06:09;18.60;99.90
21149;DHT22;10732;51.472;6.466;2023-08-21T05:08:35;18.80;99.90
21149;DHT22;10732;51.472;6.466;2023-08-21T05:11:01;19.10;99.90
21149;DHT22;10732;51.472;6.466;2023-08-21T05:13:27;19.30;99.90
21149;DHT22;10732;51.472;6.466;2023-08-21T05:15:57;19.50;99.90
21149;DHT22;10732;51.472;6.466;2023-08-21T05:18:24;19.40;99.90
21149;DHT22;10732;51.472;6.466;2023-08-21T05:20:50;19.40;99.90
21149;DHT22;10732;51.472;6.466;2023-08-21T05:23:16;19.30;99.90
21149;DHT22;10732;51.472;6.466;2023-08-21T05:25:46;19.40;99.90
21149;DHT22;10732;51.472;6.466;2023-08-21T05:28:12;19.30;99.90
21149;DHT22;10732;51.472;6.466;2023-08-21T05:30:37;19.30;99.90
21149;DHT22;10732;51.472;6.466;2023-08-21T05:33:03;19.40;99.90
21149;DHT22;10732;51.472;6.466;2023-08-21T05:35:33;19.60;99.90
21149;DHT22;10732;51.472;6.466;2023-08-21T05:37:59;19.70;99.90
21149;DHT22;10732;51.472;6.466;2023-08-21T05:40:24;19.80;99.90
21149;DHT22;10732;51.472;6.466;2023-08-21T05:42:50;20.00;99.90
21149;DHT22;10732;51.472;6.466;2023-08-21T05:45:15;20.30;99.90
21149;DHT22;10732;51.472;6.466;2023-08-21T05:47:41;20.60;99.90
21149;DHT22;10732;51.472;6.466;2023-08-21T05:50:06;20.70;99.90
21149;DHT22;10732;51.472;6.466;2023-08-21T05:52:32;20.60;99.90
21149;DHT22;10732;51.472;6.466;2023-08-21T05:54:58;20.80;99.90
21149;DHT22;10732;51.472;6.466;2023-08-21T05:57:24;20.80;99.90
21149;DHT22;10732;51.472;6.466;2023-08-21T05:59:49;20.90;99.90
21149;DHT22;10732;51.472;6.466;2023-08-21T06:02:15;21.20;99.90
21149;DHT22;10732;51.472;6.466;2023-08-21T06:04:41;21.40;99.90
21149;DHT22;10732;51.472;6.466;2023-08-21T06:07:07;22.00;99.90
21149;DHT22;10732;51.472;6.466;2023-08-21T06:09:33;22.70;99.90
21149;DHT22;10732;51.472;6.466;2023-08-21T06:12:05;23.60;99.90
21149;DHT22;10732;51.472;6.466;2023-08-21T06:14:31;23.20;99.90
21149;DHT22;10732;51.472;6.466;2023-08-21T06:16:58;23.00;99.90
21149;DHT22;10732;51.472;6.466;2023-08-21T06:19:24;23.30;99.90
21149;DHT22;10732;51.472;6.466;2023-08-21T06:21:50;23.40;99.90
21149;DHT22;10732;51.472;6.466;2023-08-21T06:24:15;23.90;99.90
21149;DHT22;10732;51.472;6.466;2023-08-21T06:26:41;24.20;99.90
21149;DHT22;10732;51.472;6.466;2023-08-21T06:29:07;24.10;99.90
21149;DHT22;10732;51.472;6.466;2023-08-21T06:31:32;24.00;99.90
21149;DHT22;10732;51.472;6.466;2023-08-21T06:33:58;23.70;99.90
21149;DHT22;10732;51.472;6.466;2023-08-21T06:36:23;23.60;99.90
21149;DHT22;10732;51.472;6.466;2023-08-21T06:38:49;23.40;99.90
21149;DHT22;10732;51.472;6.466;2023-08-21T06:41:14;23.30;99.90
21149;DHT22;10732;51.472;6.466;2023-08-21T06:43:40;22.70;99.90
21149;DHT22;10732;51.472;6.466;2023-08-21T06:46:07;22.70;99.90
21149;DHT22;10732;51.472;6.466;2023-08-21T06:48:32;22.50;99.90
21149;DHT22;10732;51.472;6.466;2023-08-21T06:50:58;22.50;99.90
21149;DHT22;10732;51.472;6.466;2023-08-21T06:53:24;23.40;99.90
21149;DHT22;10732;51.472;6.466;2023-08-21T06:55:49;24.40;99.90
21149;DHT22;10732;51.472;6.466;2023-08-21T06:58:15;25.10;99.90
21149;DHT22;10732;51.472;6.466;2023-08-21T07:00:40;25.40;99.90
21149;DHT22;10732;51.472;6.466;2023-08-21T07:03:06;26.80;99.90
21149;DHT22;10732;51.472;6.466;2023-08-21T07:05:34;27.20;99.90
21149;DHT22;10732;51.472;6.466;2023-08-21T07:08:00;26.80;99.90
21149;DHT22;10732;51.472;6.466;2023-08-21T07:10:25;26.40;99.90
21149;DHT22;10732;51.472;6.466;2023-08-21T07:12:52;27.00;99.90
21149;DHT22;10732;51.472;6.466;2023-08-21T07:15:18;26.60;99.90
21149;DHT22;10732;51.472;6.466;2023-08-21T07:17:44;25.90;99.90
21149;DHT22;10732;51.472;6.466;2023-08-21T07:20:09;25.00;99.90
21149;DHT22;10732;51.472;6.466;2023-08-21T07:22:36;24.40;99.90
21149;DHT22;10732;51.472;6.466;2023-08-21T07:25:01;23.90;99.90
21149;DHT22;10732;51.472;6.466;2023-08-21T07:27:33;24.00;99.90
21149;DHT22;10732;51.472;6.466;2023-08-21T07:29:59;24.50;99.90
21149;DHT22;10732;51.472;6.466;2023-08-21T07:32:24;25.60;99.90
21149;DHT22;10732;51.472;6.466;2023-08-21T07:34:53;25.70;99.90
21149;DHT22;10732;51.472;6.466;2023-08-21T07:37:20;25.90;99.90
21149;DHT22;10732;51.472;6.466;2023-08-21T07:39:45;26.10;99.90
21149;DHT22;10732;51.472;6.466;2023-08-21T07:42:11;25.90;99.90
21149;DHT22;10732;51.472;6.466;2023-08-21T07:44:39;25.00;99.90
21149;DHT22;10732;51.472;6.466;2023-08-21T07:47:05;25.90;99.90
21149;DHT22;10732;51.472;6.466;2023-08-21T07:49:31;27.20;99.90
21149;DHT22;10732;51.472;6.466;2023-08-21T07:51:57;28.50;99.90
21149;DHT22;10732;51.472;6.466;2023-08-21T07:54:23;29.40;99.90
21149;DHT22;10732;51.472;6.466;2023-08-21T07:56:49;29.70;99.90
21149;DHT22;10732;51.472;6.466;2023-08-21T07:59:15;28.90;99.90
21149;DHT22;10732;51.472;6.466;2023-08-21T08:01:41;29.50;99.90
21149;DHT22;10732;51.472;6.466;2023-08-21T08:04:06;30.40;99.90
21149;DHT22;10732;51.472;6.466;2023-08-21T08:06:32;30.30;99.90
21149;DHT22;10732;51.472;6.466;2023-08-21T08:08:58;29.60;99.90
21149;DHT22;10732;51.472;6.466;2023-08-21T08:11:24;29.40;99.90
21149;DHT22;10732;51.472;6.466;2023-08-21T08:13:49;30.20;99.90
21149;DHT22;10732;51.472;6.466;2023-08-21T08:16:15;30.00;99.90
21149;DHT22;10732;51.472;6.466;2023-08-21T08:18:42;30.10;99.90
21149;DHT22;10732;51.472;6.466;2023-08-21T08:21:07;29.60;99.90
21149;DHT22;10732;51.472;6.466;2023-08-21T08:23:34;30.10;99.90
21149;DHT22;10732;51.472;6.466;2023-08-21T08:25:59;30.10;99.90
21149;DHT22;10732;51.472;6.466;2023-08-21T08:28:25;30.50;99.90
21149;DHT22;10732;51.472;6.466;2023-08-21T08:30:51;30.80;99.90
21149;DHT22;10732;51.472;6.466;2023-08-21T08:33:16;30.90;99.90
21149;DHT22;10732;51.472;6.466;2023-08-21T08:35:42;30.10;99.90
21149;DHT22;10732;51.472;6.466;2023-08-21T08:38:08;30.10;99.90
21149;DHT22;10732;51.472;6.466;2023-08-21T08:40:40;30.50;99.90
21149;DHT22;10732;51.472;6.466;2023-08-21T08:43:08;30.70;99.90
21149;DHT22;10732;51.472;6.466;2023-08-21T08:45:34;31.20;99.90
21149;DHT22;10732;51.472;6.466;2023-08-21T08:48:00;30.80;99.90
21149;DHT22;10732;51.472;6.466;2023-08-21T08:50:29;30.90;99.90
21149;DHT22;10732;51.472;6.466;2023-08-21T08:52:55;31.00;99.90
21149;DHT22;10732;51.472;6.466;2023-08-21T08:55:22;31.30;99.90
21149;DHT22;10732;51.472;6.466;2023-08-21T08:57:47;31.00;99.90
21149;DHT22;10732;51.472;6.466;2023-08-21T09:00:13;31.80;99.90
21149;DHT22;10732;51.472;6.466;2023-08-21T09:02:39;32.10;99.90
21149;DHT22;10732;51.472;6.466;2023-08-21T09:05:05;31.50;99.90
21149;DHT22;10732;51.472;6.466;2023-08-21T09:07:32;31.90;99.90
21149;DHT22;10732;51.472;6.466;2023-08-21T09:09:57;31.30;99.90
21149;DHT22;10732;51.472;6.466;2023-08-21T09:12:23;31.60;99.90
21149;DHT22;10732;51.472;6.466;2023-08-21T09:14:48;31.90;99.90
21149;DHT22;10732;51.472;6.466;2023-08-21T09:17:14;32.00;99.90
21149;DHT22;10732;51.472;6.466;2023-08-21T09:19:40;31.60;99.90
21149;DHT22;10732;51.472;6.466;2023-08-21T09:22:14;32.70;99.90
21149;DHT22;10732;51.472;6.466;2023-08-21T09:24:41;33.20;99.90
21149;DHT22;10732;51.472;6.466;2023-08-21T09:27:24;33.00;99.90
21149;DHT22;10732;51.472;6.466;2023-08-21T09:29:50;33.00;99.90
21149;DHT22;10732;51.472;6.466;2023-08-21T09:32:15;33.40;99.90
21149;DHT22;10732;51.472;6.466;2023-08-21T09:34:41;33.40;99.90
21149;DHT22;10732;51.472;6.466;2023-08-21T09:37:09;32.60;99.90
21149;DHT22;10732;51.472;6.466;2023-08-21T09:39:36;33.00;99.90
21149;DHT22;10732;51.472;6.466;2023-08-21T09:42:06;32.20;99.90
21149;DHT22;10732;51.472;6.466;2023-08-21T09:44:39;31.60;99.90
21149;DHT22;10732;51.472;6.466;2023-08-21T09:47:08;33.50;99.90
21149;DHT22;10732;51.472;6.466;2023-08-21T09:49:34;32.80;99.90
21149;DHT22;10732;51.472;6.466;2023-08-21T09:52:04;33.80;99.90
21149;DHT22;10732;51.472;6.466;2023-08-21T09:54:30;33.10;99.90
21149;DHT22;10732;51.472;6.466;2023-08-21T09:56:58;31.60;99.90
21149;DHT22;10732;51.472;6.466;2023-08-21T09:59:26;30.80;99.90
21149;DHT22;10732;51.472;6.466;2023-08-21T10:01:52;31.00;99.90
21149;DHT22;10732;51.472;6.466;2023-08-21T10:04:17;32.20;99.90
21149;DHT22;10732;51.472;6.466;2023-08-21T10:06:45;32.30;99.90
21149;DHT22;10732;51.472;6.466;2023-08-21T10:09:12;32.60;99.90
21149;DHT22;10732;51.472;6.466;2023-08-21T10:11:38;33.80;99.90
21149;DHT22;10732;51.472;6.466;2023-08-21T10:14:04;33.90;99.90
21149;DHT22;10732;51.472;6.466;2023-08-21T10:16:30;33.90;99.90
21149;DHT22;10732;51.472;6.466;2023-08-21T10:19:03;34.70;99.90
21149;DHT22;10732;51.472;6.466;2023-08-21T10:21:34;35.10;99.90
21149;DHT22;10732;51.472;6.466;2023-08-21T10:24:00;34.40;99.90
21149;DHT22;10732;51.472;6.466;2023-08-21T10:26:26;34.40;99.90
21149;DHT22;10732;51.472;6.466;2023-08-21T10:28:54;34.30;99.90
21149;DHT22;10732;51.472;6.466;2023-08-21T10:33:55;34.80;99.90
21149;DHT22;10732;51.472;6.466;2023-08-21T10:44:34;32.20;99.90
21149;DHT22;10732;51.472;6.466;2023-08-21T10:47:21;33.30;99.90
21149;DHT22;10732;51.472;6.466;2023-08-21T10:50:02;33.50;99.90
21149;DHT22;10732;51.472;6.466;2023-08-21T10:52:37;34.40;99.90
21149;DHT22;10732;51.472;6.466;2023-08-21T10:55:03;34.10;99.90
21149;DHT22;10732;51.472;6.466;2023-08-21T10:57:32;33.60;99.90
21149;DHT22;10732;51.472;6.466;2023-08-21T11:00:06;32.40;99.90
21149;DHT22;10732;51.472;6.466;2023-08-21T11:02:37;33.30;99.90
21149;DHT22;10732;51.472;6.466;2023-08-21T11:05:04;33.00;99.90
21149;DHT22;10732;51.472;6.466;2023-08-21T11:07:32;32.70;99.90
21149;DHT22;10732;51.472;6.466;2023-08-21T11:10:01;34.20;99.90
21149;DHT22;10732;51.472;6.466;2023-08-21T11:12:28;34.70;99.90
21149;DHT22;10732;51.472;6.466;2023-08-21T11:14:53;34.40;99.90
21149;DHT22;10732;51.472;6.466;2023-08-21T11:17:19;34.10;99.90
21149;DHT22;10732;51.472;6.466;2023-08-21T11:19:45;34.00;99.90
21149;DHT22;10732;51.472;6.466;2023-08-21T11:22:11;34.10;99.90
21149;DHT22;10732;51.472;6.466;2023-08-21T11:27:06;33.60;99.90
21149;DHT22;10732;51.472;6.466;2023-08-21T11:30:01;33.20;99.90
21149;DHT22;10732;51.472;6.466;2023-08-21T11:32:27;33.80;99.90
21149;DHT22;10732;51.472;6.466;2023-08-21T11:34:54;33.70;99.90
21149;DHT22;10732;51.472;6.466;2023-08-21T11:37:21;34.30;99.90
21149;DHT22;10732;51.472;6.466;2023-08-21T11:39:49;34.70;99.90
21149;DHT22;10732;51.472;6.466;2023-08-21T11:42:16;34.70;99.90
21149;DHT22;10732;51.472;6.466;2023-08-21T11:44:46;34.00;99.90
21149;DHT22;10732;51.472;6.466;2023-08-21T11:47:13;33.00;99.90
21149;DHT22;10732;51.472;6.466;2023-08-21T11:49:43;31.60;99.90
21149;DHT22;10732;51.472;6.466;2023-08-21T11:52:12;30.20;99.90
21149;DHT22;10732;51.472;6.466;2023-08-21T11:54:39;29.60;99.90
21149;DHT22;10732;51.472;6.466;2023-08-21T11:57:13;29.40;99.90
21149;DHT22;10732;51.472;6.466;2023-08-21T11:59:39;29.30;99.90
21149;DHT22;10732;51.472;6.466;2023-08-21T12:02:16;29.20;99.90
21149;DHT22;10732;51.472;6.466;2023-08-21T12:04:42;29.50;99.90
21149;DHT22;10732;51.472;6.466;2023-08-21T12:07:08;30.00;99.90
21149;DHT22;10732;51.472;6.466;2023-08-21T12:09:34;30.10;99.90
21149;DHT22;10732;51.472;6.466;2023-08-21T12:12:00;30.50;99.90
21149;DHT22;10732;51.472;6.466;2023-08-21T12:14:27;30.60;99.90
21149;DHT22;10732;51.472;6.466;2023-08-21T12:16:53;30.30;99.90
21149;DHT22;10732;51.472;6.466;2023-08-21T12:19:19;30.30;99.90
21149;DHT22;10732;51.472;6.466;2023-08-21T12:21:45;30.60;99.90
21149;DHT22;10732;51.472;6.466;2023-08-21T12:24:10;30.70;99.90
21149;DHT22;10732;51.472;6.466;2023-08-21T12:26:36;30.60;99.90
21149;DHT22;10732;51.472;6.466;2023-08-21T12:29:01;30.80;99.90
21149;DHT22;10732;51.472;6.466;2023-08-21T12:31:28;30.60;99.90
21149;DHT22;10732;51.472;6.466;2023-08-21T12:33:54;30.10;99.90
21149;DHT22;10732;51.472;6.466;2023-08-21T12:36:19;30.60;99.90
21149;DHT22;10732;51.472;6.466;2023-08-21T12:38:45;29.90;99.90
21149;DHT22;10732;51.472;6.466;2023-08-21T12:41:11;29.70;99.90
21149;DHT22;10732;51.472;6.466;2023-08-21T12:43:36;29.00;99.90
21149;DHT22;10732;51.472;6.466;2023-08-21T12:46:02;29.50;99.90
21149;DHT22;10732;51.472;6.466;2023-08-21T12:48:27;29.50;99.90
21149;DHT22;10732;51.472;6.466;2023-08-21T12:50:53;29.40;99.90
21149;DHT22;10732;51.472;6.466;2023-08-21T12:53:18;29.60;99.90
21149;DHT22;10732;51.472;6.466;2023-08-21T12:55:44;29.90;99.90
21149;DHT22;10732;51.472;6.466;2023-08-21T12:58:10;29.80;99.90
21149;DHT22;10732;51.472;6.466;2023-08-21T13:00:35;29.70;99.90
21149;DHT22;10732;51.472;6.466;2023-08-21T13:03:01;29.40;99.90
21149;DHT22;10732;51.472;6.466;2023-08-21T13:05:26;29.30;99.90
21149;DHT22;10732;51.472;6.466;2023-08-21T13:07:52;29.40;99.90
21149;DHT22;10732;51.472;6.466;2023-08-21T13:10:18;29.20;99.90
21149;DHT22;10732;51.472;6.466;2023-08-21T13:12:43;29.10;99.90
21149;DHT22;10732;51.472;6.466;2023-08-21T13:15:09;28.90;99.90
21149;DHT22;10732;51.472;6.466;2023-08-21T13:17:35;28.20;99.90
21149;DHT22;10732;51.472;6.466;2023-08-21T13:20:01;28.10;99.90
21149;DHT22;10732;51.472;6.466;2023-08-21T13:22:26;27.90;99.90
21149;DHT22;10732;51.472;6.466;2023-08-21T13:24:52;27.90;99.90
21149;DHT22;10732;51.472;6.466;2023-08-21T13:27:18;28.00;99.90
21149;DHT22;10732;51.472;6.466;2023-08-21T13:29:45;28.50;99.90
21149;DHT22;10732;51.472;6.466;2023-08-21T13:32:10;28.70;99.90
21149;DHT22;10732;51.472;6.466;2023-08-21T13:34:36;28.40;99.90
21149;DHT22;10732;51.472;6.466;2023-08-21T13:37:02;28.00;99.90
21149;DHT22;10732;51.472;6.466;2023-08-21T13:39:28;27.90;99.90
21149;DHT22;10732;51.472;6.466;2023-08-21T13:41:53;27.80;99.90
21149;DHT22;10732;51.472;6.466;2023-08-21T13:44:19;27.60;99.90
21149;DHT22;10732;51.472;6.466;2023-08-21T13:46:44;27.40;99.90
21149;DHT22;10732;51.472;6.466;2023-08-21T13:49:10;27.40;99.90
21149;DHT22;10732;51.472;6.466;2023-08-21T13:51:35;27.60;99.90
21149;DHT22;10732;51.472;6.466;2023-08-21T13:54:01;27.60;99.90
21149;DHT22;10732;51.472;6.466;2023-08-21T13:56:26;27.40;99.90
21149;DHT22;10732;51.472;6.466;2023-08-21T13:58:52;27.30;99.90
21149;DHT22;10732;51.472;6.466;2023-08-21T14:01:17;27.30;99.90
21149;DHT22;10732;51.472;6.466;2023-08-21T14:03:43;27.20;99.90
21149;DHT22;10732;51.472;6.466;2023-08-21T14:06:08;27.20;99.90
21149;DHT22;10732;51.472;6.466;2023-08-21T14:08:37;27.30;99.90
21149;DHT22;10732;51.472;6.466;2023-08-21T14:11:03;27.60;99.90
21149;DHT22;10732;51.472;6.466;2023-08-21T14:13:28;28.00;99.90
21149;DHT22;10732;51.472;6.466;2023-08-21T14:15:54;28.20;99.90
21149;DHT22;10732;51.472;6.466;2023-08-21T14:18:20;28.20;99.90
21149;DHT22;10732;51.472;6.466;2023-08-21T14:20:45;28.20;99.90
21149;DHT22;10732;51.472;6.466;2023-08-21T14:23:11;28.10;99.90
21149;DHT22;10732;51.472;6.466;2023-08-21T14:25:37;28.40;99.90
21149;DHT22;10732;51.472;6.466;2023-08-21T14:28:03;28.50;99.90
21149;DHT22;10732;51.472;6.466;2023-08-21T14:30:29;28.50;99.90
21149;DHT22;10732;51.472;6.466;2023-08-21T14:32:54;28.50;99.90
21149;DHT22;10732;51.472;6.466;2023-08-21T14:35:20;28.60;99.90
21149;DHT22;10732;51.472;6.466;2023-08-21T14:37:46;28.30;99.90
21149;DHT22;10732;51.472;6.466;2023-08-21T14:40:11;28.20;99.90
21149;DHT22;10732;51.472;6.466;2023-08-21T14:42:37;27.90;99.90
21149;DHT22;10732;51.472;6.466;2023-08-21T14:45:03;27.90;99.90
21149;DHT22;10732;51.472;6.466;2023-08-21T14:47:30;28.10;99.90
21149;DHT22;10732;51.472;6.466;2023-08-21T14:49:56;27.90;99.90
21149;DHT22;10732;51.472;6.466;2023-08-21T14:52:22;27.50;99.90
21149;DHT22;10732;51.472;6.466;2023-08-21T14:54:50;27.30;99.90
21149;DHT22;10732;51.472;6.466;2023-08-21T14:57:16;27.10;99.90
21149;DHT22;10732;51.472;6.466;2023-08-21T14:59:41;26.90;99.90
21149;DHT22;10732;51.472;6.466;2023-08-21T15:02:07;27.00;99.90
21149;DHT22;10732;51.472;6.466;2023-08-21T15:04:33;27.10;99.90
21149;DHT22;10732;51.472;6.466;2023-08-21T15:06:59;27.00;99.90
21149;DHT22;10732;51.472;6.466;2023-08-21T15:09:24;27.20;99.90
21149;DHT22;10732;51.472;6.466;2023-08-21T15:11:50;27.30;99.90
21149;DHT22;10732;51.472;6.466;2023-08-21T15:14:15;27.40;99.90
21149;DHT22;10732;51.472;6.466;2023-08-21T15:16:41;27.30;99.90
21149;DHT22;10732;51.472;6.466;2023-08-21T15:19:07;27.30;99.90
21149;DHT22;10732;51.472;6.466;2023-08-21T15:21:32;27.40;99.90
21149;DHT22;10732;51.472;6.466;2023-08-21T15:23:58;27.30;99.90
21149;DHT22;10732;51.472;6.466;2023-08-21T15:26:23;27.50;99.90
21149;DHT22;10732;51.472;6.466;2023-08-21T15:28:49;27.80;99.90
21149;DHT22;10732;51.472;6.466;2023-08-21T15:31:15;27.90;99.90
21149;DHT22;10732;51.472;6.466;2023-08-21T15:33:41;27.60;99.90
21149;DHT22;10732;51.472;6.466;2023-08-21T15:36:06;27.30;99.90
21149;DHT22;10732;51.472;6.466;2023-08-21T15:38:32;27.30;99.90
21149;DHT22;10732;51.472;6.466;2023-08-21T15:40:57;27.20;99.90
21149;DHT22;10732;51.472;6.466;2023-08-21T15:43:23;27.10;99.90